createdAt,value
2018-02-17T12:13:21.946Z,102188.65
2018-02-17T12:16:23.828Z,102187.72
2018-02-17T12:19:25.704Z,102187.74
2018-02-17T12:22:27.587Z,102184.88
2018-02-17T12:25:29.455Z,102188.24
2018-02-17T12:47:06.253Z,102216.35
2018-02-17T12:50:08.200Z,102219.70
2018-02-17T12:53:10.172Z,102212.61
2018-02-17T12:56:12.195Z,102223.12
2018-02-17T12:59:14.243Z,102221.86
2018-02-17T13:02:16.173Z,102225.94
2018-02-17T13:05:18.919Z,102225.48
2018-02-17T13:08:20.942Z,102227.52
2018-02-17T13:11:22.986Z,102226.52
2018-02-17T13:14:24.955Z,102231.51
2018-02-17T13:17:26.934Z,102231.01
2018-02-17T13:20:28.848Z,102225.72
2018-02-17T13:23:31.003Z,102223.18
2018-02-17T13:26:33.032Z,102224.14
2018-02-17T13:29:35.010Z,102231.58
2018-02-17T13:32:36.989Z,102230.01
2018-02-17T13:35:38.923Z,102234.84
2018-02-17T13:38:40.995Z,102234.10
2018-02-17T13:41:43.027Z,102238.87
2018-02-17T13:44:45.030Z,102238.02
2018-02-17T13:47:47.001Z,102236.39
2018-02-17T13:50:48.952Z,102230.94
2018-02-17T13:53:50.949Z,102224.95
2018-02-17T13:56:52.894Z,102225.74
2018-02-17T13:59:54.842Z,102229.59
2018-02-17T14:02:57.358Z,102239.66
2018-02-17T14:05:59.302Z,102251.04
2018-02-17T14:09:01.714Z,102257.85
2018-02-17T14:12:03.682Z,102256.09
2018-02-17T14:15:05.687Z,102261.11
2018-02-17T14:18:07.711Z,102271.33
2018-02-17T14:21:09.649Z,102284.42
2018-02-17T14:24:11.614Z,102284.89
2018-02-17T14:27:13.690Z,102278.40
2018-02-17T14:30:15.647Z,102283.29
2018-02-17T14:33:17.615Z,102281.96
2018-02-17T14:36:19.582Z,102277.92
2018-02-17T14:39:21.564Z,102268.19
2018-02-17T14:42:23.542Z,102282.52
2018-02-17T14:45:25.509Z,102291.12
2018-02-17T14:48:27.466Z,102285.87
2018-02-17T14:51:29.557Z,102294.55
2018-02-17T14:54:31.481Z,102284.89
2018-02-17T14:57:33.470Z,102279.05
2018-02-17T15:00:35.404Z,102288.18
2018-02-17T15:03:37.400Z,102284.98
2018-02-17T15:06:39.364Z,102302.61
2018-02-17T15:09:41.398Z,102314.59
2018-02-17T15:12:43.594Z,102316.36
2018-02-17T15:15:45.535Z,102309.43
2018-02-17T15:18:47.522Z,102305.56
2018-02-17T15:21:49.486Z,102285.89
2018-02-17T15:24:51.569Z,102304.85
2018-02-17T15:27:53.627Z,102326.31
2018-02-17T15:30:55.669Z,102330.90
2018-02-17T15:33:57.634Z,102345.47
2018-02-17T15:36:59.793Z,102347.15
2018-02-17T15:40:01.842Z,102346.88
2018-02-17T15:43:03.837Z,102343.40
2018-02-17T15:46:05.884Z,102349.61
2018-02-17T15:49:07.974Z,102356.70
2018-02-17T15:52:09.985Z,102358.90
2018-02-17T15:55:12.015Z,102366.87
2018-02-17T15:58:13.964Z,102372.22
2018-02-17T16:01:16.154Z,102377.64
2018-02-17T16:04:18.190Z,102367.83
2018-02-17T16:07:20.243Z,102367.31
2018-02-17T16:10:22.179Z,102376.00
2018-02-17T16:13:24.264Z,102381.05
2018-02-17T16:16:26.203Z,102386.76
2018-02-17T16:19:28.301Z,102394.05
2018-02-17T16:22:30.244Z,102397.90
2018-02-17T16:25:32.372Z,102406.29
2018-02-17T16:28:34.397Z,102414.52
2018-02-17T16:31:36.463Z,102419.01
2018-02-17T16:34:38.529Z,102411.33
2018-02-17T16:37:40.594Z,102421.36
2018-02-17T16:40:42.548Z,102428.92
2018-02-17T16:43:44.594Z,102430.45
2018-02-17T16:46:46.532Z,102439.28
2018-02-17T16:49:48.782Z,102437.02
2018-02-17T16:52:50.724Z,102441.99
2018-02-17T16:55:52.802Z,102441.81
2018-02-17T16:58:54.714Z,102456.24
2018-02-17T17:01:56.813Z,102461.61
2018-02-17T17:04:58.823Z,102460.54
2018-02-17T17:08:00.881Z,102461.64
2018-02-17T17:11:02.893Z,102464.30
2018-02-17T17:14:04.887Z,102470.14
2018-02-17T17:17:06.851Z,102475.56
2018-02-17T17:20:09.472Z,102478.59
2018-02-17T17:23:11.413Z,102488.40
2018-02-17T17:26:13.474Z,102502.39
2018-02-17T17:29:15.522Z,102508.17
2018-02-17T17:32:17.689Z,102507.31
2018-02-17T17:35:19.813Z,102514.86
2018-02-17T17:38:21.782Z,102520.87
2018-02-17T17:41:23.833Z,102533.27
2018-02-17T17:44:25.812Z,102543.37
2018-02-17T17:47:27.795Z,102543.38
2018-02-17T17:50:29.710Z,102540.23
2018-02-17T17:53:31.784Z,102544.36
2018-02-17T17:56:33.895Z,102542.09
2018-02-17T17:59:35.885Z,102542.96
2018-02-17T18:02:37.987Z,102542.83
2018-02-17T18:05:40.022Z,102544.96
2018-02-17T18:08:41.968Z,102550.66
2018-02-17T18:11:44.037Z,102549.88
2018-02-17T18:14:46.080Z,102556.27
2018-02-17T18:17:48.050Z,102560.74
2018-02-17T18:20:49.975Z,102564.53
2018-02-17T18:23:52.189Z,102565.30
2018-02-17T18:26:54.165Z,102572.40
2018-02-17T18:29:56.186Z,102573.55
2018-02-17T18:32:58.160Z,102576.96
2018-02-17T18:36:00.316Z,102583.44
2018-02-17T18:39:02.330Z,102588.53
2018-02-17T18:42:04.497Z,102589.97
2018-02-17T18:45:06.450Z,102595.09
2018-02-17T18:48:08.596Z,102605.76
2018-02-17T18:51:10.592Z,102607.97
2018-02-17T18:54:12.699Z,102614.24
2018-02-17T18:57:14.722Z,102614.32
2018-02-17T19:00:16.689Z,102613.46
2018-02-17T19:03:18.703Z,102619.81
2018-02-17T19:06:20.662Z,102627.19
2018-02-17T19:09:22.814Z,102625.29
2018-02-17T19:12:24.779Z,102630.91
2018-02-17T19:15:26.736Z,102629.95
2018-02-17T19:18:28.802Z,102640.56
2018-02-17T19:21:30.774Z,102639.25
2018-02-17T19:24:32.861Z,102642.49
2018-02-17T19:27:34.906Z,102640.62
2018-02-17T19:30:36.879Z,102638.92
2018-02-17T19:33:39.183Z,102639.46
2018-02-17T19:36:41.237Z,102645.05
2018-02-17T19:39:43.172Z,102648.85
2018-02-17T19:42:45.140Z,102647.05
2018-02-17T19:45:47.222Z,102647.31
2018-02-17T19:48:49.281Z,102641.81
2018-02-17T19:51:51.471Z,102640.73
2018-02-17T19:54:53.412Z,102645.60
2018-02-17T19:57:55.413Z,102646.17
2018-02-17T20:00:57.360Z,102645.00
2018-02-17T20:04:00.357Z,102643.78
2018-02-17T20:07:02.366Z,102650.35
2018-02-17T20:10:04.537Z,102647.81
2018-02-17T20:13:06.648Z,102649.73
2018-02-17T20:16:08.694Z,102659.58
2018-02-17T20:19:10.696Z,102666.03
2018-02-17T20:22:12.692Z,102662.88
2018-02-17T20:25:14.746Z,102666.92
2018-02-17T20:28:16.701Z,102675.32
2018-02-17T20:31:18.775Z,102685.76
2018-02-17T20:34:20.714Z,102692.40
2018-02-17T20:37:22.667Z,102690.95
2018-02-17T20:40:24.623Z,102696.99
2018-02-17T20:43:26.741Z,102699.78
2018-02-17T20:46:28.785Z,102698.78
2018-02-17T20:49:30.704Z,102704.13
2018-02-17T20:52:32.870Z,102708.71
2018-02-17T20:55:34.899Z,102719.24
2018-02-17T20:58:36.938Z,102717.95
2018-02-17T21:01:39.022Z,102717.55
2018-02-17T21:04:40.995Z,102725.60
2018-02-17T21:07:42.968Z,102726.86
2018-02-17T21:10:45.002Z,102731.08
2018-02-17T21:13:47.017Z,102732.54
2018-02-17T21:16:48.973Z,102736.76
2018-02-17T21:19:51.032Z,102728.50
2018-02-17T21:22:53.114Z,102735.37
2018-02-17T21:25:55.191Z,102734.89
2018-02-17T21:28:57.200Z,102742.27
2018-02-17T21:31:59.231Z,102751.03
2018-02-17T21:35:01.204Z,102754.79
2018-02-17T21:38:03.148Z,102757.51
2018-02-17T21:41:05.132Z,102766.49
2018-02-17T21:44:07.062Z,102761.63
2018-02-17T21:47:09.061Z,102768.75
2018-02-17T21:50:11.033Z,102770.63
2018-02-17T21:53:13.029Z,102771.24
2018-02-17T21:56:15.056Z,102773.14
2018-02-17T21:59:17.014Z,102775.52
2018-02-17T22:02:19.266Z,102781.84
2018-02-17T22:05:21.296Z,102782.67
2018-02-17T22:08:23.219Z,102784.89
2018-02-17T22:11:25.185Z,102779.78
2018-02-17T22:14:27.177Z,102776.19
2018-02-17T22:17:29.107Z,102774.52
2018-02-17T22:20:31.042Z,102777.50
2018-02-17T22:23:33.267Z,102781.53
2018-02-17T22:26:35.235Z,102783.25
2018-02-17T22:29:37.524Z,102781.63
2018-02-17T22:32:39.691Z,102799.59
2018-02-17T22:35:43.025Z,102800.30
2018-02-17T22:38:45.358Z,102806.20
2018-02-17T22:41:47.316Z,102805.72
2018-02-17T22:44:49.250Z,102811.82
2018-02-17T22:47:51.260Z,102812.50
2018-02-17T22:50:53.207Z,102810.96
2018-02-17T22:53:55.279Z,102815.06
2018-02-17T22:56:57.267Z,102823.86
2018-02-17T22:59:59.214Z,102823.11
2018-02-17T23:03:01.187Z,102825.35
2018-02-17T23:06:03.353Z,102832.50
2018-02-17T23:09:05.322Z,102839.41
2018-02-17T23:12:07.244Z,102843.69
2018-02-17T23:15:09.354Z,102847.68
2018-02-17T23:18:11.362Z,102853.24
2018-02-17T23:21:13.417Z,102850.94
2018-02-17T23:24:15.448Z,102855.65
2018-02-17T23:27:17.413Z,102858.19
2018-02-17T23:30:19.489Z,102858.39
2018-02-17T23:33:21.452Z,102865.74
2018-02-17T23:36:23.422Z,102865.42
2018-02-17T23:39:25.390Z,102867.52
2018-02-17T23:42:27.355Z,102864.98
2018-02-17T23:45:29.344Z,102869.32
2018-02-17T23:48:31.314Z,102872.42
2018-02-17T23:51:33.268Z,102879.86
2018-02-17T23:54:35.212Z,102875.68
2018-02-17T23:57:37.199Z,102878.12
